createdAt,value
2022-08-26T00:01:32.220Z,7.10
2022-08-26T00:11:36.599Z,7.27
2022-08-26T00:21:38.293Z,7.20
2022-08-26T00:31:40.992Z,7.50
2022-08-26T00:41:43.077Z,7.93
2022-08-26T00:51:50.829Z,7.40
2022-08-26T01:01:53.266Z,7.73
2022-08-26T01:11:57.276Z,7.87
2022-08-26T01:22:05.287Z,8.10
2022-08-26T01:32:10.710Z,7.80
2022-08-26T01:42:14.616Z,8.03
2022-08-26T01:52:22.609Z,8.17
2022-08-26T02:02:26.402Z,8.30
2022-08-26T02:12:28.290Z,8.83
2022-08-26T02:22:31.444Z,8.63
2022-08-26T02:32:33.695Z,8.13
2022-08-26T02:42:37.450Z,8.23
2022-08-26T02:52:39.156Z,8.20
2022-08-26T03:02:41.098Z,8.77
2022-08-26T03:12:47.462Z,8.53
2022-08-26T03:22:53.192Z,8.47
2022-08-26T03:32:58.109Z,11.13
2022-08-26T03:43:01.075Z,9.30
2022-08-26T03:53:04.284Z,8.83
2022-08-26T04:03:10.013Z,8.93
2022-08-26T04:13:12.234Z,8.60
2022-08-26T04:23:14.722Z,8.77
2022-08-26T04:33:19.679Z,8.90
2022-08-26T04:43:34.457Z,9.10
2022-08-26T04:53:36.561Z,9.57
2022-08-26T05:03:38.518Z,9.90
2022-08-26T05:13:43.002Z,9.27
2022-08-26T05:23:44.707Z,9.83
2022-08-26T05:33:46.711Z,10.67
2022-08-26T05:43:48.436Z,10.20
2022-08-26T05:53:54.649Z,9.90
2022-08-26T06:04:01.903Z,11.30
2022-08-26T06:14:05.997Z,14.00
2022-08-26T06:24:28.865Z,10.33
2022-08-26T06:34:30.959Z,10.50
2022-08-26T06:44:32.847Z,10.00
2022-08-26T06:54:34.839Z,9.53
2022-08-26T07:04:36.520Z,13.83
2022-08-26T07:14:38.471Z,10.60
2022-08-26T07:24:42.449Z,9.90
2022-08-26T07:34:45.567Z,10.80
2022-08-26T07:44:47.759Z,10.90
2022-08-26T07:54:49.658Z,10.73
2022-08-26T08:04:52.252Z,10.70
2022-08-26T08:14:54.338Z,9.47
2022-08-26T08:24:56.735Z,10.03
2022-08-26T08:34:59.344Z,9.70
2022-08-26T08:45:10.615Z,9.67
2022-08-26T08:55:18.135Z,9.07
2022-08-26T09:05:34.225Z,9.63
2022-08-26T09:15:41.879Z,9.50
2022-08-26T09:36:18.663Z,8.80
2022-08-26T09:46:28.326Z,9.20
2022-08-26T09:56:33.130Z,8.50
2022-08-26T10:06:43.417Z,8.17
2022-08-26T10:16:54.466Z,8.27
2022-08-26T10:27:07.684Z,7.37
2022-08-26T10:37:20.455Z,8.53
2022-08-26T10:47:33.263Z,8.27
2022-08-26T10:57:52.964Z,7.63
2022-08-26T11:08:20.475Z,7.45
2022-08-26T11:18:42.955Z,6.85
2022-08-26T11:28:45.976Z,6.25
2022-08-26T11:38:49.020Z,6.22
2022-08-26T11:48:52.074Z,7.47
2022-08-26T11:58:57.253Z,6.70
2022-08-26T12:09:02.816Z,7.03
2022-08-26T12:19:27.648Z,5.80
2022-08-26T12:29:29.348Z,6.47
2022-08-26T12:39:36.242Z,7.35
2022-08-26T12:49:39.622Z,7.07
2022-08-26T12:59:41.510Z,6.17
2022-08-26T13:09:43.178Z,6.60
2022-08-26T13:19:46.063Z,8.63
2022-08-26T13:29:47.881Z,7.83
2022-08-26T13:39:51.077Z,6.70
2022-08-26T13:49:52.959Z,8.00
2022-08-26T13:59:56.482Z,7.87
2022-08-26T14:09:58.219Z,7.73
2022-08-26T14:19:59.918Z,7.80
2022-08-26T14:30:01.594Z,7.27
2022-08-26T14:40:06.054Z,7.53
2022-08-26T14:50:08.122Z,7.77
2022-08-26T15:00:10.505Z,8.23
2022-08-26T15:10:14.385Z,6.77
2022-08-26T15:20:16.539Z,6.87
2022-08-26T15:30:18.421Z,6.67
2022-08-26T15:40:22.085Z,6.03
2022-08-26T15:50:25.382Z,5.93
2022-08-26T16:00:28.177Z,5.43
2022-08-26T16:10:31.051Z,5.73
2022-08-26T16:20:34.659Z,5.90
2022-08-26T16:30:36.315Z,6.17
2022-08-26T16:40:38.675Z,6.10
2022-08-26T16:50:41.881Z,5.60
2022-08-26T17:00:45.368Z,6.30
2022-08-26T17:10:47.053Z,5.57
2022-08-26T17:20:49.353Z,6.30
2022-08-26T17:30:51.048Z,5.00
2022-08-26T17:40:52.874Z,5.77
2022-08-26T17:50:54.792Z,5.00
2022-08-26T18:00:56.661Z,4.77
2022-08-26T18:10:59.051Z,6.03
2022-08-26T18:21:01.884Z,6.27
2022-08-26T18:31:03.841Z,5.30
2022-08-26T18:41:05.677Z,3.77
2022-08-26T18:51:07.983Z,4.03
2022-08-26T19:01:15.403Z,3.40
2022-08-26T19:11:31.617Z,3.50
2022-08-26T19:21:35.757Z,3.67
2022-08-26T19:31:37.412Z,3.80
2022-08-26T19:41:40.083Z,4.07
2022-08-26T19:51:41.997Z,3.67
2022-08-26T20:01:43.840Z,4.10
2022-08-26T20:11:45.524Z,4.20
2022-08-26T20:21:47.268Z,4.50
2022-08-26T20:31:49.477Z,5.00
2022-08-26T20:41:51.347Z,5.30
2022-08-26T20:51:53.954Z,5.67
2022-08-26T21:01:55.838Z,5.47
2022-08-26T21:11:57.578Z,5.87
2022-08-26T21:21:59.588Z,5.50
2022-08-26T21:32:01.256Z,5.30
2022-08-26T21:42:03.683Z,5.20
2022-08-26T21:52:05.460Z,5.10
2022-08-26T22:02:07.496Z,5.07
2022-08-26T22:12:11.438Z,4.97
2022-08-26T22:22:13.692Z,4.70
2022-08-26T22:32:15.536Z,4.33
2022-08-26T22:42:17.248Z,4.20
2022-08-26T22:52:18.935Z,4.17
2022-08-26T23:02:20.612Z,4.23
2022-08-26T23:12:22.571Z,4.13
2022-08-26T23:22:25.045Z,4.37
2022-08-26T23:32:26.831Z,5.17
2022-08-26T23:42:29.038Z,4.83
2022-08-26T23:52:50.413Z,4.80
